Time;durP1;ratioP1;P1;durP2;ratioP2;P2;SDS_P1;SDS_P2;PMS_P1;PMS_P2;Temp;Humidity;BMP_temperature;BMP_pressure;BME280_temperature;BME280_humidity;BME280_pressure;Samples;Min_cycle;Max_cycle;Signal;HPM_P1;HPM_P2
2023/01/10 00:00:36;;;;;;;2.75;1.27;;;;;;;;;;5011593;28;20084;-83
2023/01/10 00:03:06;;;;;;;2.63;1.20;;;;;;;;;;5034819;28;20053;-84
2023/01/10 00:05:32;;;;;;;2.97;1.10;;;;;;;;;;5027618;28;20056;-83
2023/01/10 00:07:58;;;;;;;2.63;1.15;;;;;;;;;;5013009;28;20055;-84
2023/01/10 00:10:26;;;;;;;2.63;1.25;;;;;;;;;;5040862;28;20037;-84
2023/01/10 00:15:39;;;;;;;3.67;1.38;;;;;;;;;;5013261;28;20200;-84
2023/01/10 00:18:05;;;;;;;2.65;0.95;;;;;;;;;;4988219;28;20037;-84
2023/01/10 00:20:30;;;;;;;3.30;1.27;;;;;;;;;;5026791;28;20406;-85
2023/01/10 00:22:56;;;;;;;2.30;1.02;;;;;;;;;;5018391;28;20041;-84
2023/01/10 00:25:22;;;;;;;3.75;1.17;;;;;;;;;;4985719;28;20042;-84
2023/01/10 00:30:39;;;;;;;3.35;1.15;;;;;;;;;;5010846;28;20053;-83
2023/01/10 00:33:05;;;;;;;3.88;1.40;;;;;;;;;;5031310;28;20041;-84
2023/01/10 00:35:31;;;;;;;3.17;1.20;;;;;;;;;;4981367;28;20715;-83
2023/01/10 00:38:04;;;;;;;2.80;1.63;;;;;;;;;;5028531;28;20037;-83
2023/01/10 00:40:31;;;;;;;2.92;1.10;;;;;;;;;;5013134;28;20567;-82
2023/01/10 00:45:41;;;;;;;2.67;1.20;;;;;;;;;;5011938;28;20072;-82
2023/01/10 00:48:06;;;;;;;2.30;1.20;;;;;;;;;;5009441;28;20500;-82
2023/01/10 00:50:32;;;;;;;4.40;1.58;;;;;;;;;;5000172;28;20462;-82
2023/01/10 00:52:57;;;;;;;3.03;1.27;;;;;;;;;;5024581;28;20116;-84
2023/01/10 00:55:22;;;;;;;2.80;1.40;;;;;;;;;;5009160;28;20040;-82
2023/01/10 00:57:48;;;;;;;3.13;1.17;;;;;;;;;;4999343;28;20141;-82
2023/01/10 01:00:13;;;;;;;3.78;1.50;;;;;;;;;;4976434;28;20035;-82
2023/01/10 01:02:39;;;;;;;2.92;1.23;;;;;;;;;;4988851;28;20179;-84
2023/01/10 01:05:05;;;;;;;2.92;1.40;;;;;;;;;;4990877;28;20033;-82
2023/01/10 01:07:30;;;;;;;3.83;1.42;;;;;;;;;;4991116;28;20045;-83
2023/01/10 01:12:40;;;;;;;3.13;1.30;;;;;;;;;;5035370;28;20028;-82
2023/01/10 01:15:05;;;;;;;3.20;1.40;;;;;;;;;;5040537;28;20041;-81
2023/01/10 01:17:31;;;;;;;4.45;1.55;;;;;;;;;;5034252;28;20176;-82
2023/01/10 01:19:56;;;;;;;3.30;1.50;;;;;;;;;;5025587;28;20034;-83
2023/01/10 01:22:21;;;;;;;3.55;1.40;;;;;;;;;;5028688;28;20057;-83
2023/01/10 01:24:47;;;;;;;3.10;1.40;;;;;;;;;;5036673;28;20047;-82
2023/01/10 01:27:12;;;;;;;4.30;1.55;;;;;;;;;;5033282;28;20063;-83
2023/01/10 01:29:38;;;;;;;4.35;1.65;;;;;;;;;;5044150;28;20152;-83
2023/01/10 01:32:03;;;;;;;3.63;1.70;;;;;;;;;;5037544;28;20037;-82
2023/01/10 01:34:29;;;;;;;4.50;1.42;;;;;;;;;;5025893;28;20615;-83
2023/01/10 01:36:55;;;;;;;4.90;1.67;;;;;;;;;;5033252;28;20513;-82
2023/01/10 01:39:21;;;;;;;4.67;1.80;;;;;;;;;;5036333;28;20063;-82
2023/01/10 01:41:59;;;;;;;3.35;1.48;;;;;;;;;;5025329;28;20057;-83
2023/01/10 01:44:29;;;;;;;;;;;;;;;;;;5049933;28;20381;-83
2023/01/10 01:47:26;;;;;;;3.97;1.50;;;;;;;;;;5026874;28;20020;-83
2023/01/10 01:49:52;;;;;;;3.15;1.40;;;;;;;;;;5037997;28;20040;-83
2023/01/10 01:52:27;;;;;;;4.95;2.10;;;;;;;;;;5040680;28;20033;-83
2023/01/10 01:54:54;;;;;;;3.35;1.45;;;;;;;;;;5035027;28;20131;-83
2023/01/10 01:57:24;;;;;;;3.47;1.67;;;;;;;;;;5028469;28;20515;-84
2023/01/10 01:59:51;;;;;;;3.72;1.60;;;;;;;;;;5014929;28;20065;-83
2023/01/10 02:02:26;;;;;;;5.30;1.88;;;;;;;;;;5006926;28;20033;-83
2023/01/10 02:04:53;;;;;;;3.78;1.48;;;;;;;;;;5020084;28;20026;-83
2023/01/10 02:07:20;;;;;;;3.10;1.50;;;;;;;;;;5061543;28;20442;-84
2023/01/10 02:09:50;;;;;;;3.55;1.90;;;;;;;;;;5048979;28;20283;-84
2023/01/10 02:12:16;;;;;;;3.30;1.60;;;;;;;;;;5006197;28;20034;-84
2023/01/10 02:14:43;;;;;;;2.63;1.50;;;;;;;;;;5015735;28;20032;-84
2023/01/10 02:17:09;;;;;;;;;;;;;;;;;;5036179;28;20144;-84
2023/01/10 02:19:42;;;;;;;4.30;1.20;;;;;;;;;;5020921;28;20011;-84
2023/01/10 02:22:20;;;;;;;2.22;1.08;;;;;;;;;;5065158;28;20036;-84
2023/01/10 02:25:23;;;;;;;3.80;1.15;;;;;;;;;;5020312;28;20703;-83
2023/01/10 02:28:04;;;;;;;3.95;1.20;;;;;;;;;;5025996;28;20061;-83
2023/01/10 02:30:57;;;;;;;2.10;0.90;;;;;;;;;;5036031;28;20112;-84
2023/01/10 02:33:33;;;;;;;3.47;1.23;;;;;;;;;;5060581;28;20041;-84
2023/01/10 02:36:07;;;;;;;4.82;1.35;;;;;;;;;;5015606;28;20029;-83
2023/01/10 02:38:54;;;;;;;3.05;1.20;;;;;;;;;;5046540;28;20044;-84
2023/01/10 02:41:44;;;;;;;2.70;1.00;;;;;;;;;;5018691;28;20119;-84
2023/01/10 02:44:29;;;;;;;2.97;1.20;;;;;;;;;;5015591;28;20061;-84
2023/01/10 02:46:55;;;;;;;2.55;1.30;;;;;;;;;;5057206;28;20044;-82
2023/01/10 02:49:21;;;;;;;3.63;1.58;;;;;;;;;;5022464;28;20034;-84
2023/01/10 02:51:46;;;;;;;3.47;1.67;;;;;;;;;;5002006;28;20080;-83
2023/01/10 02:54:17;;;;;;;4.20;1.45;;;;;;;;;;5019907;28;20037;-84
2023/01/10 02:56:53;;;;;;;3.45;1.58;;;;;;;;;;5077169;28;20037;-83
2023/01/10 02:59:40;;;;;;;4.78;1.60;;;;;;;;;;5021288;28;20506;-84
2023/01/10 03:02:14;;;;;;;3.80;1.67;;;;;;;;;;5018405;28;20037;-83
2023/01/10 03:05:10;;;;;;;3.83;1.70;;;;;;;;;;5043427;28;20044;-83
2023/01/10 03:07:44;;;;;;;4.43;1.70;;;;;;;;;;5041441;28;20491;-83
2023/01/10 03:10:15;;;;;;;4.65;2.03;;;;;;;;;;5011380;28;20029;-83
2023/01/10 03:12:44;;;;;;;4.07;1.95;;;;;;;;;;5019793;28;20032;-83
2023/01/10 03:15:12;;;;;;;5.38;2.13;;;;;;;;;;5059707;28;20048;-82
2023/01/10 03:17:38;;;;;;;4.13;1.98;;;;;;;;;;5042237;28;20391;-84
2023/01/10 03:20:05;;;;;;;4.05;1.85;;;;;;;;;;5058916;28;20029;-84
2023/01/10 03:22:32;;;;;;;6.23;2.00;;;;;;;;;;5049087;28;20040;-84
2023/01/10 03:24:59;;;;;;;4.90;2.15;;;;;;;;;;5059454;28;20032;-84
2023/01/10 03:27:47;;;;;;;4.70;2.05;;;;;;;;;;5016162;28;20034;-84
2023/01/10 03:30:38;;;;;;;5.80;2.38;;;;;;;;;;5038581;28;20049;-83
2023/01/10 03:33:04;;;;;;;5.57;2.10;;;;;;;;;;5051083;28;20507;-83
2023/01/10 03:36:20;;;;;;;5.53;2.35;;;;;;;;;;5028876;28;20029;-84
2023/01/10 03:38:58;;;;;;;6.72;2.30;;;;;;;;;;5058610;28;20041;-84
2023/01/10 03:41:32;;;;;;;4.38;1.98;;;;;;;;;;5012141;28;20055;-84
2023/01/10 03:47:00;;;;;;;5.22;2.47;;;;;;;;;;5022558;28;20047;-84
2023/01/10 03:49:26;;;;;;;6.80;2.33;;;;;;;;;;5019743;28;20435;-86
2023/01/10 03:51:52;;;;;;;5.15;2.53;;;;;;;;;;5027681;28;20052;-85
2023/01/10 03:54:18;;;;;;;6.57;2.58;;;;;;;;;;5030742;28;20036;-84
2023/01/10 03:56:50;;;;;;;6.18;2.75;;;;;;;;;;5007190;28;20041;-84
2023/01/10 03:59:26;;;;;;;5.13;2.25;;;;;;;;;;5029929;28;20036;-83
2023/01/10 04:01:52;;;;;;;5.13;2.88;;;;;;;;;;5059121;28;20064;-84
2023/01/10 04:04:17;;;;;;;4.95;2.60;;;;;;;;;;5029240;28;20133;-84
2023/01/10 04:06:43;;;;;;;7.05;2.83;;;;;;;;;;5047174;28;20139;-84
2023/01/10 04:09:09;;;;;;;6.28;2.65;;;;;;;;;;4998340;28;20464;-87
2023/01/10 04:11:34;;;;;;;7.22;3.35;;;;;;;;;;5010511;28;20496;-85
2023/01/10 04:13:59;;;;;;;5.85;3.20;;;;;;;;;;5002626;28;20040;-88
2023/01/10 04:16:25;;;;;;;5.72;2.47;;;;;;;;;;4992847;28;20557;-85
2023/01/10 04:18:50;;;;;;;5.00;2.42;;;;;;;;;;5001333;28;20437;-84
2023/01/10 04:21:16;;;;;;;9.13;2.70;;;;;;;;;;5006864;28;20065;-86
2023/01/10 04:23:44;;;;;;;5.93;3.00;;;;;;;;;;5026568;28;20037;-87
2023/01/10 04:26:09;;;;;;;;;;;;;;;;;;4950572;28;20029;-86
2023/01/10 04:28:35;;;;;;;6.78;2.80;;;;;;;;;;4957005;28;19923;-86
2023/01/10 04:31:00;;;;;;;7.00;3.03;;;;;;;;;;4999875;28;20388;-88
2023/01/10 04:33:27;;;;;;;5.82;2.72;;;;;;;;;;4980472;28;20033;-87
2023/01/10 04:36:00;;;;;;;7.63;3.35;;;;;;;;;;4979447;28;20036;-85
2023/01/10 04:38:25;;;;;;;6.97;2.90;;;;;;;;;;5017650;28;20084;-85
2023/01/10 04:40:52;;;;;;;8.18;3.63;;;;;;;;;;5037811;28;20037;-87
2023/01/10 04:43:18;;;;;;;6.28;3.30;;;;;;;;;;5025005;28;20508;-87
2023/01/10 04:45:44;;;;;;;6.60;3.30;;;;;;;;;;5005754;28;20029;-86
2023/01/10 04:48:12;;;;;;;5.88;2.78;;;;;;;;;;4983134;28;20441;-88
2023/01/10 04:51:13;;;;;;;6.90;3.20;;;;;;;;;;4947994;28;20041;-86
2023/01/10 04:53:41;;;;;;;5.47;2.78;;;;;;;;;;4959483;28;20037;-86
2023/01/10 04:56:29;;;;;;;7.07;3.70;;;;;;;;;;4994892;28;20048;-88
2023/01/10 04:58:55;;;;;;;7.03;3.10;;;;;;;;;;4984745;28;20485;-84
2023/01/10 05:01:22;;;;;;;7.75;3.20;;;;;;;;;;4973605;28;20137;-85
2023/01/10 05:03:49;;;;;;;8.77;3.38;;;;;;;;;;4959221;28;20033;-85
2023/01/10 05:06:14;;;;;;;9.60;3.50;;;;;;;;;;4990222;28;20051;-85
2023/01/10 05:08:45;;;;;;;9.15;3.30;;;;;;;;;;5000844;28;20098;-87
2023/01/10 05:11:11;;;;;;;9.32;3.25;;;;;;;;;;5020343;28;20578;-84
2023/01/10 05:13:37;;;;;;;8.57;3.38;;;;;;;;;;5019068;28;20384;-82
2023/01/10 05:16:02;;;;;;;9.50;3.58;;;;;;;;;;5009228;28;20044;-82
2023/01/10 05:18:28;;;;;;;7.68;3.03;;;;;;;;;;5047027;28;20056;-83
2023/01/10 05:21:04;;;;;;;7.88;3.17;;;;;;;;;;5016127;28;20626;-84
2023/01/10 05:23:30;;;;;;;7.05;3.60;;;;;;;;;;5013488;28;20188;-84
2023/01/10 05:25:55;;;;;;;7.95;3.35;;;;;;;;;;5015739;28;20029;-83
2023/01/10 05:28:21;;;;;;;9.07;3.50;;;;;;;;;;5017025;28;20039;-83
2023/01/10 05:30:46;;;;;;;8.35;3.42;;;;;;;;;;5026564;28;20037;-82
2023/01/10 05:33:12;;;;;;;9.23;3.45;;;;;;;;;;5057335;28;20043;-83
2023/01/10 05:35:37;;;;;;;5.93;3.00;;;;;;;;;;5041467;28;20158;-83
2023/01/10 05:38:03;;;;;;;8.85;3.70;;;;;;;;;;5030385;28;20037;-86
2023/01/10 05:40:46;;;;;;;7.38;3.38;;;;;;;;;;5024614;28;20036;-87
2023/01/10 05:43:50;;;;;;;8.13;3.50;;;;;;;;;;4998098;28;20052;-87
2023/01/10 05:46:35;;;;;;;12.55;3.88;;;;;;;;;;4972507;28;20052;-87
2023/01/10 05:49:00;;;;;;;7.97;3.50;;;;;;;;;;4996030;28;20448;-79
2023/01/10 05:51:25;;;;;;;7.40;3.30;;;;;;;;;;5016160;28;20034;-81
2023/01/10 05:53:51;;;;;;;8.63;3.70;;;;;;;;;;5020589;28;20072;-80
2023/01/10 05:56:16;;;;;;;7.40;3.47;;;;;;;;;;4999361;28;20029;-80
2023/01/10 05:58:42;;;;;;;9.00;3.95;;;;;;;;;;5033990;28;20120;-79
2023/01/10 06:01:13;;;;;;;7.18;3.20;;;;;;;;;;5031236;28;20041;-90
2023/01/10 06:03:42;;;;;;;9.70;3.90;;;;;;;;;;4995928;28;20054;-88
2023/01/10 06:10:29;;;;;;;7.95;3.72;;;;;;;;;;4905888;28;20205;-90
2023/01/10 06:13:04;;;;;;;9.57;3.78;;;;;;;;;;4815110;28;20046;-88
2023/01/10 06:15:46;;;;;;;11.02;4.15;;;;;;;;;;4886780;28;20527;-90
2023/01/10 06:18:15;;;;;;;8.60;3.40;;;;;;;;;;4969463;28;20591;-87
2023/01/10 06:20:41;;;;;;;7.47;3.17;;;;;;;;;;5002092;28;20040;-86
2023/01/10 06:23:07;;;;;;;9.50;3.40;;;;;;;;;;5010750;28;20099;-86
2023/01/10 06:25:35;;;;;;;6.38;3.08;;;;;;;;;;5007368;28;20034;-87
2023/01/10 06:28:02;;;;;;;9.75;3.22;;;;;;;;;;5007496;28;20050;-87
2023/01/10 06:30:27;;;;;;;8.43;3.60;;;;;;;;;;5021866;28;20041;-87
2023/01/10 06:32:53;;;;;;;7.70;3.70;;;;;;;;;;5020861;28;20041;-87
2023/01/10 06:35:18;;;;;;;9.73;3.65;;;;;;;;;;5005620;28;20033;-88
2023/01/10 06:37:44;;;;;;;8.45;3.70;;;;;;;;;;5024594;28;20037;-88
2023/01/10 06:40:10;;;;;;;10.13;4.10;;;;;;;;;;5025830;28;20034;-87
2023/01/10 06:42:38;;;;;;;8.05;3.35;;;;;;;;;;5006847;28;20104;-87
2023/01/10 06:45:04;;;;;;;10.90;3.80;;;;;;;;;;5003316;28;20044;-87
2023/01/10 06:47:30;;;;;;;7.53;3.53;;;;;;;;;;5008977;28;20069;-88
2023/01/10 06:49:55;;;;;;;10.35;4.28;;;;;;;;;;5012338;28;20044;-87
2023/01/10 06:52:22;;;;;;;8.70;4.25;;;;;;;;;;5016578;28;20041;-88
2023/01/10 06:54:48;;;;;;;13.82;4.22;;;;;;;;;;5030153;28;20033;-87
2023/01/10 06:57:16;;;;;;;8.40;3.97;;;;;;;;;;5016021;28;20186;-87
2023/01/10 06:59:42;;;;;;;8.68;3.92;;;;;;;;;;5004896;28;20036;-87
2023/01/10 07:02:10;;;;;;;9.15;4.05;;;;;;;;;;4997488;28;20443;-88
2023/01/10 07:04:35;;;;;;;9.38;3.95;;;;;;;;;;5012019;28;20143;-88
2023/01/10 07:07:03;;;;;;;10.25;4.45;;;;;;;;;;4967877;28;20041;-88
2023/01/10 07:09:38;;;;;;;;;;;;;;;;;;;;;
2023/01/10 07:12:07;;;;;;;11.27;4.30;;;;;;;;;;5011948;28;19924;-88
2023/01/10 07:14:35;;;;;;;11.25;4.45;;;;;;;;;;5043758;28;20049;-88
2023/01/10 07:17:00;;;;;;;10.23;4.38;;;;;;;;;;5038060;28;20111;-88
2023/01/10 07:19:33;;;;;;;8.13;4.28;;;;;;;;;;5055632;28;20553;-89
2023/01/10 07:22:14;;;;;;;11.52;4.25;;;;;;;;;;5010692;28;20596;-88
2023/01/10 07:24:47;;;;;;;8.23;3.90;;;;;;;;;;5035353;28;20052;-88
2023/01/10 07:27:13;;;;;;;10.88;4.32;;;;;;;;;;5021136;28;20040;-88
2023/01/10 07:29:39;;;;;;;10.93;4.35;;;;;;;;;;5038265;28;20101;-88
2023/01/10 07:32:07;;;;;;;12.45;4.93;;;;;;;;;;5032246;28;20055;-88
2023/01/10 07:34:32;;;;;;;9.25;4.45;;;;;;;;;;5041967;28;20047;-87
2023/01/10 07:36:58;;;;;;;10.93;4.50;;;;;;;;;;5039823;28;20684;-88
2023/01/10 07:39:26;;;;;;;12.00;4.53;;;;;;;;;;5047534;28;20042;-89
2023/01/10 07:41:52;;;;;;;16.13;5.10;;;;;;;;;;5032348;28;20028;-87
2023/01/10 07:44:17;;;;;;;9.38;4.80;;;;;;;;;;5018399;28;20029;-88
2023/01/10 07:46:43;;;;;;;11.25;5.70;;;;;;;;;;4998634;28;20083;-88
2023/01/10 07:49:09;;;;;;;11.30;4.57;;;;;;;;;;5029110;28;20810;-87
2023/01/10 07:51:34;;;;;;;11.43;4.40;;;;;;;;;;5045476;28;20036;-88
2023/01/10 07:54:00;;;;;;;14.07;4.65;;;;;;;;;;5047001;28;20124;-90
2023/01/10 07:56:25;;;;;;;12.80;4.90;;;;;;;;;;5019131;28;20044;-88
2023/01/10 07:58:51;;;;;;;12.27;4.78;;;;;;;;;;5036288;28;20038;-89
2023/01/10 08:01:26;;;;;;;10.82;4.80;;;;;;;;;;5010288;28;20404;-89
2023/01/10 08:03:51;;;;;;;9.23;3.95;;;;;;;;;;5009970;28;20663;-88
2023/01/10 08:06:19;;;;;;;10.68;4.22;;;;;;;;;;5055756;28;20040;-88
2023/01/10 08:08:44;;;;;;;11.15;4.40;;;;;;;;;;5033548;28;20395;-88
2023/01/10 08:11:10;;;;;;;9.95;4.53;;;;;;;;;;5018171;28;20042;-88
2023/01/10 08:13:35;;;;;;;11.73;4.70;;;;;;;;;;5020770;28;20057;-86
2023/01/10 08:16:05;;;;;;;10.98;4.45;;;;;;;;;;5014707;28;20047;-87
2023/01/10 08:18:31;;;;;;;8.68;4.40;;;;;;;;;;5012628;28;20037;-90
2023/01/10 08:20:56;;;;;;;8.90;4.45;;;;;;;;;;5006014;28;20032;-89
2023/01/10 08:23:22;;;;;;;12.40;4.40;;;;;;;;;;5032019;28;20039;-89
2023/01/10 08:25:49;;;;;;;8.82;4.32;;;;;;;;;;5022470;28;20087;-88
2023/01/10 08:28:29;;;;;;;8.05;3.72;;;;;;;;;;5009038;28;20083;-88
2023/01/10 08:30:54;;;;;;;10.68;3.92;;;;;;;;;;5011981;28;20041;-88
2023/01/10 08:33:23;;;;;;;8.55;4.40;;;;;;;;;;5014058;28;20036;-90
2023/01/10 08:35:49;;;;;;;9.02;4.07;;;;;;;;;;5047245;28;20128;-88
2023/01/10 08:38:14;;;;;;;10.27;4.45;;;;;;;;;;5028999;28;20112;-89
2023/01/10 08:40:40;;;;;;;8.27;4.10;;;;;;;;;;5042673;28;20587;-88
2023/01/10 08:43:08;;;;;;;11.40;4.85;;;;;;;;;;5034031;28;20086;-89
2023/01/10 08:45:34;;;;;;;11.27;4.68;;;;;;;;;;5052422;28;20123;-89
2023/01/10 08:48:00;;;;;;;9.82;4.43;;;;;;;;;;5043657;28;20127;-87
2023/01/10 08:50:26;;;;;;;8.90;4.50;;;;;;;;;;5018068;28;20040;-89
2023/01/10 08:52:51;;;;;;;10.60;5.10;;;;;;;;;;5034740;28;20372;-89
2023/01/10 08:55:18;;;;;;;10.70;5.00;;;;;;;;;;5003237;28;20041;-89
2023/01/10 08:57:47;;;;;;;8.47;4.57;;;;;;;;;;5028521;28;20570;-88
2023/01/10 09:00:13;;;;;;;10.90;4.78;;;;;;;;;;4995793;28;20128;-88
2023/01/10 09:02:39;;;;;;;10.85;4.75;;;;;;;;;;5041575;28;20434;-87
2023/01/10 09:05:05;;;;;;;8.23;4.78;;;;;;;;;;5044534;28;20128;-90
2023/01/10 09:07:33;;;;;;;9.00;4.55;;;;;;;;;;5026311;28;20131;-87
2023/01/10 09:09:59;;;;;;;11.57;4.55;;;;;;;;;;5020441;28;20609;-89
2023/01/10 09:15:09;;;;;;;8.55;4.60;;;;;;;;;;5040325;28;20124;-88
2023/01/10 09:17:37;;;;;;;9.77;4.93;;;;;;;;;;5012925;28;20048;-89
2023/01/10 09:20:09;;;;;;;8.52;4.47;;;;;;;;;;5014734;28;20564;-90
2023/01/10 09:22:42;;;;;;;14.65;4.78;;;;;;;;;;5005852;28;20135;-89
2023/01/10 09:25:10;;;;;;;9.55;4.10;;;;;;;;;;5020439;28;20544;-88
2023/01/10 09:27:38;;;;;;;9.15;4.28;;;;;;;;;;5004602;28;20534;-88
2023/01/10 09:30:04;;;;;;;12.13;4.50;;;;;;;;;;5021810;28;20029;-88
2023/01/10 09:32:30;;;;;;;7.55;3.92;;;;;;;;;;4999536;28;20040;-89
2023/01/10 09:34:58;;;;;;;8.55;4.03;;;;;;;;;;5013294;28;20036;-89
2023/01/10 09:37:23;;;;;;;10.30;4.43;;;;;;;;;;5006443;28;20511;-89
2023/01/10 09:39:51;;;;;;;11.57;4.90;;;;;;;;;;5016875;28;20090;-88
2023/01/10 09:42:17;;;;;;;;;;;;;;;;;;5008428;28;20064;-89
2023/01/10 09:44:58;;;;;;;7.20;3.75;;;;;;;;;;5017551;28;19958;-89
2023/01/10 09:47:35;;;;;;;7.93;4.18;;;;;;;;;;5001081;28;20406;-89
2023/01/10 09:50:09;;;;;;;8.50;4.45;;;;;;;;;;5024470;28;20040;-88
2023/01/10 09:52:40;;;;;;;10.40;4.40;;;;;;;;;;5059635;28;20044;-89
2023/01/10 09:55:26;;;;;;;11.75;4.05;;;;;;;;;;5039550;28;20056;-88
2023/01/10 09:57:54;;;;;;;9.60;4.50;;;;;;;;;;5059262;28;20055;-88
2023/01/10 10:00:22;;;;;;;12.63;3.90;;;;;;;;;;5055927;28;20070;-88
2023/01/10 10:02:51;;;;;;;7.82;3.50;;;;;;;;;;5044490;28;20045;-88
2023/01/10 10:05:25;;;;;;;7.93;3.50;;;;;;;;;;5040594;28;20039;-88
2023/01/10 10:07:55;;;;;;;9.70;3.83;;;;;;;;;;5005081;28;20035;-89
2023/01/10 10:10:25;;;;;;;7.88;3.67;;;;;;;;;;5028325;28;20049;-89
2023/01/10 10:13:08;;;;;;;10.75;3.58;;;;;;;;;;5020095;28;20041;-86
2023/01/10 10:15:38;;;;;;;7.85;3.90;;;;;;;;;;5024946;28;20037;-87
2023/01/10 10:18:13;;;;;;;8.07;3.40;;;;;;;;;;5039030;28;20252;-88
2023/01/10 10:21:06;;;;;;;7.93;3.40;;;;;;;;;;5004490;28;20388;-88
2023/01/10 10:23:43;;;;;;;9.93;3.35;;;;;;;;;;5004503;28;20043;-89
2023/01/10 10:26:15;;;;;;;8.68;2.90;;;;;;;;;;5021604;28;20044;-88
2023/01/10 10:28:49;;;;;;;7.25;3.30;;;;;;;;;;5051252;28;20399;-89
2023/01/10 10:31:20;;;;;;;12.75;3.50;;;;;;;;;;5042428;28;20087;-88
2023/01/10 10:34:09;;;;;;;8.75;3.33;;;;;;;;;;5021673;28;20036;-89
2023/01/10 10:36:56;;;;;;;7.35;3.30;;;;;;;;;;5019185;28;20041;-89
2023/01/10 10:39:27;;;;;;;7.63;3.42;;;;;;;;;;5046235;28;20568;-88
2023/01/10 10:41:54;;;;;;;10.50;3.42;;;;;;;;;;5045924;28;20032;-88
2023/01/10 10:44:44;;;;;;;10.95;3.65;;;;;;;;;;5053632;28;20707;-90
2023/01/10 10:47:14;;;;;;;7.50;3.53;;;;;;;;;;5014564;28;20044;-88
2023/01/10 10:50:06;;;;;;;6.57;3.03;;;;;;;;;;5004753;28;20083;-90
2023/01/10 10:52:33;;;;;;;8.73;3.40;;;;;;;;;;5032162;28;20040;-88
2023/01/10 10:54:59;;;;;;;7.15;3.15;;;;;;;;;;5032191;28;20053;-89
2023/01/10 10:57:27;;;;;;;7.25;2.95;;;;;;;;;;5022323;28;20620;-89
2023/01/10 10:59:52;;;;;;;7.15;3.33;;;;;;;;;;5018719;28;20037;-89
2023/01/10 11:02:30;;;;;;;9.27;3.28;;;;;;;;;;5027939;28;20044;-88
2023/01/10 11:04:59;;;;;;;11.43;3.65;;;;;;;;;;5002551;28;20064;-89
2023/01/10 11:07:27;;;;;;;7.05;2.85;;;;;;;;;;5016315;28;20407;-89
2023/01/10 11:09:57;;;;;;;7.70;2.90;;;;;;;;;;5020856;28;20118;-89
2023/01/10 11:12:29;;;;;;;6.68;2.80;;;;;;;;;;5033650;28;20044;-89
2023/01/10 11:14:54;;;;;;;7.28;3.38;;;;;;;;;;5029419;28;20552;-88
2023/01/10 11:17:26;;;;;;;7.05;2.83;;;;;;;;;;5018460;28;20040;-90
2023/01/10 11:20:05;;;;;;;7.63;3.22;;;;;;;;;;5026670;28;20033;-89
2023/01/10 11:22:41;;;;;;;9.35;2.60;;;;;;;;;;5003462;28;20036;-90
2023/01/10 11:25:20;;;;;;;5.68;2.50;;;;;;;;;;5018721;28;20030;-89
2023/01/10 11:27:57;;;;;;;8.68;2.83;;;;;;;;;;5004792;28;20045;-88
2023/01/10 11:30:24;;;;;;;8.57;3.00;;;;;;;;;;5029582;28;20037;-88
2023/01/10 11:32:58;;;;;;;5.15;2.63;;;;;;;;;;5031141;28;20058;-88
2023/01/10 11:35:27;;;;;;;10.60;3.10;;;;;;;;;;5029356;28;20957;-88
2023/01/10 11:38:16;;;;;;;9.38;2.80;;;;;;;;;;5046861;28;20029;-87
2023/01/10 11:40:57;;;;;;;9.13;2.50;;;;;;;;;;5017141;28;20044;-87
2023/01/10 11:43:34;;;;;;;8.15;2.63;;;;;;;;;;5059312;28;20044;-88
2023/01/10 11:46:02;;;;;;;6.57;2.60;;;;;;;;;;5007353;28;20432;-87
2023/01/10 11:48:53;;;;;;;6.57;2.85;;;;;;;;;;5002275;28;20128;-86
2023/01/10 11:51:24;;;;;;;7.88;2.20;;;;;;;;;;5031820;28;20063;-87
2023/01/10 11:53:57;;;;;;;9.65;2.35;;;;;;;;;;5019560;28;20032;-86
2023/01/10 11:56:35;;;;;;;4.72;2.17;;;;;;;;;;5023106;28;20147;-88
2023/01/10 11:59:12;;;;;;;5.35;2.10;;;;;;;;;;5019148;28;20043;-86
2023/01/10 12:01:40;;;;;;;;;;;;;;;;;;5030370;28;20068;-87
2023/01/10 12:04:15;;;;;;;8.05;2.30;;;;;;;;;;5049126;28;20303;-86
2023/01/10 12:06:46;;;;;;;10.13;2.40;;;;;;;;;;4996982;28;20064;-86
2023/01/10 12:09:39;;;;;;;6.22;1.95;;;;;;;;;;5049722;28;20499;-87
2023/01/10 12:12:32;;;;;;;7.13;2.30;;;;;;;;;;4991142;28;20060;-86
2023/01/10 12:14:58;;;;;;;6.45;1.52;;;;;;;;;;5007852;28;20036;-86
2023/01/10 12:17:30;;;;;;;10.27;2.20;;;;;;;;;;5030982;28;20511;-87
2023/01/10 12:19:59;;;;;;;7.65;2.10;;;;;;;;;;5003645;28;20036;-88
2023/01/10 12:22:31;;;;;;;5.72;1.67;;;;;;;;;;5003971;28;20555;-87
2023/01/10 12:24:57;;;;;;;7.32;1.75;;;;;;;;;;5049608;28;20109;-87
2023/01/10 12:27:24;;;;;;;6.07;1.60;;;;;;;;;;5028741;28;20567;-87
2023/01/10 12:30:10;;;;;;;9.00;2.00;;;;;;;;;;5008567;28;20051;-87
2023/01/10 12:32:41;;;;;;;11.75;2.13;;;;;;;;;;5041479;28;20392;-88
2023/01/10 12:35:13;;;;;;;7.90;1.70;;;;;;;;;;5000958;28;20033;-87
2023/01/10 12:37:44;;;;;;;6.72;1.50;;;;;;;;;;5061532;28;20036;-87
2023/01/10 12:40:18;;;;;;;8.77;1.92;;;;;;;;;;5036115;28;20048;-87
2023/01/10 12:45:43;;;;;;;4.88;1.58;;;;;;;;;;5036678;28;20074;-88
2023/01/10 12:48:16;;;;;;;3.70;1.30;;;;;;;;;;5001251;28;20037;-88
2023/01/10 12:50:57;;;;;;;5.40;1.60;;;;;;;;;;5001539;28;20037;-87
2023/01/10 12:53:31;;;;;;;9.52;1.70;;;;;;;;;;5026630;28;20032;-87
2023/01/10 12:56:03;;;;;;;5.13;1.33;;;;;;;;;;5015716;28;20060;-86
2023/01/10 12:58:43;;;;;;;7.60;1.58;;;;;;;;;;5014687;28;20475;-86
2023/01/10 13:01:15;;;;;;;4.47;1.30;;;;;;;;;;5016051;28;20039;-87
2023/01/10 13:03:42;;;;;;;7.45;1.55;;;;;;;;;;5028143;28;20119;-87
2023/01/10 13:06:22;;;;;;;5.22;1.40;;;;;;;;;;5016498;28;20375;-87
2023/01/10 13:08:47;;;;;;;8.93;1.88;;;;;;;;;;5052495;28;20040;-86
2023/01/10 13:11:14;;;;;;;7.50;1.48;;;;;;;;;;5059817;28;20504;-86
2023/01/10 13:13:47;;;;;;;5.78;1.42;;;;;;;;;;5009281;28;20132;-86
2023/01/10 13:16:40;;;;;;;5.20;1.80;;;;;;;;;;5056195;28;20072;-86
2023/01/10 13:19:18;;;;;;;10.00;1.95;;;;;;;;;;5023572;28;20373;-88
2023/01/10 13:21:44;;;;;;;10.32;1.92;;;;;;;;;;5043109;28;20923;-87
2023/01/10 13:24:39;;;;;;;6.32;1.60;;;;;;;;;;5059973;28;20572;-87
2023/01/10 13:27:05;;;;;;;8.25;2.13;;;;;;;;;;5008725;28;20036;-87
2023/01/10 13:29:42;;;;;;;8.52;2.10;;;;;;;;;;5028850;28;20038;-87
2023/01/10 13:32:23;;;;;;;6.25;1.88;;;;;;;;;;5016042;28;20515;-87
2023/01/10 13:39:21;;;;;;;6.10;2.10;;;;;;;;;;4963280;28;20048;-87
2023/01/10 13:45:10;;;;;;;7.38;2.28;;;;;;;;;;5044070;28;20080;-87
2023/01/10 13:47:51;;;;;;;8.45;2.40;;;;;;;;;;4999413;28;20107;-87
2023/01/10 13:50:43;;;;;;;5.22;1.65;;;;;;;;;;5006322;28;20044;-87
2023/01/10 13:56:33;;;;;;;6.40;1.88;;;;;;;;;;4978468;28;20080;-87
2023/01/10 14:02:30;;;;;;;6.70;2.10;;;;;;;;;;4937694;28;20060;-87
2023/01/10 14:08:19;;;;;;;8.70;1.92;;;;;;;;;;4936993;28;20467;-88
2023/01/10 14:11:11;;;;;;;8.88;1.98;;;;;;;;;;4922751;28;20048;-88
2023/01/10 14:13:50;;;;;;;9.93;2.13;;;;;;;;;;4900044;28;20047;-86
2023/01/10 14:16:36;;;;;;;5.28;1.80;;;;;;;;;;4896487;28;20043;-87
2023/01/10 14:19:22;;;;;;;9.77;3.20;;;;;;;;;;4922052;28;20050;-88
2023/01/10 14:22:17;;;;;;;9.82;2.85;;;;;;;;;;4976483;28;20580;-88
2023/01/10 14:24:47;;;;;;;7.00;2.05;;;;;;;;;;4999319;28;20038;-87
2023/01/10 14:27:16;;;;;;;4.70;2.13;;;;;;;;;;4959811;28;20700;-85
2023/01/10 14:29:49;;;;;;;8.30;2.03;;;;;;;;;;4963719;28;20669;-86
2023/01/10 14:32:35;;;;;;;5.22;2.20;;;;;;;;;;4979045;28;20117;-86
2023/01/10 14:35:03;;;;;;;6.07;2.15;;;;;;;;;;5001835;28;20049;-86
2023/01/10 14:37:39;;;;;;;8.25;2.50;;;;;;;;;;4988742;28;20045;-86
2023/01/10 14:40:25;;;;;;;9.52;2.70;;;;;;;;;;5005294;28;20439;-86
2023/01/10 14:42:54;;;;;;;7.17;1.70;;;;;;;;;;4986974;28;20029;-87
2023/01/10 14:45:28;;;;;;;6.00;1.80;;;;;;;;;;4972447;28;20285;-86
2023/01/10 14:47:54;;;;;;;5.00;1.65;;;;;;;;;;5000171;28;20029;-87
2023/01/10 14:50:31;;;;;;;4.88;1.90;;;;;;;;;;5011716;28;20451;-86
2023/01/10 14:52:57;;;;;;;7.30;2.28;;;;;;;;;;5002833;28;20112;-87
2023/01/10 14:55:22;;;;;;;4.15;1.80;;;;;;;;;;4985825;28;20095;-86
2023/01/10 14:58:01;;;;;;;7.38;2.13;;;;;;;;;;4990416;28;20748;-86
2023/01/10 15:00:28;;;;;;;5.22;2.25;;;;;;;;;;4986499;28;20053;-86
2023/01/10 15:02:54;;;;;;;7.35;1.98;;;;;;;;;;5005535;28;20040;-86
2023/01/10 15:05:24;;;;;;;7.05;2.42;;;;;;;;;;4990103;28;20540;-86
2023/01/10 15:07:50;;;;;;;6.72;2.42;;;;;;;;;;5038921;28;20404;-86
2023/01/10 15:10:28;;;;;;;4.03;1.75;;;;;;;;;;5036329;28;20038;-86
2023/01/10 15:12:56;;;;;;;6.20;2.05;;;;;;;;;;4996601;28;20061;-86
2023/01/10 15:15:28;;;;;;;4.85;2.00;;;;;;;;;;5015112;28;20124;-86
2023/01/10 15:17:54;;;;;;;9.90;2.20;;;;;;;;;;5007190;28;20057;-87
2023/01/10 15:20:22;;;;;;;9.35;2.78;;;;;;;;;;4981242;28;20072;-87
2023/01/10 15:22:54;;;;;;;7.78;2.10;;;;;;;;;;4991888;28;20515;-87
2023/01/10 15:25:19;;;;;;;7.57;1.92;;;;;;;;;;5012214;28;20100;-87
2023/01/10 15:27:47;;;;;;;4.88;2.00;;;;;;;;;;5024049;28;20068;-88
2023/01/10 15:30:27;;;;;;;5.60;1.95;;;;;;;;;;5019394;28;20036;-88
2023/01/10 15:32:55;;;;;;;5.50;1.90;;;;;;;;;;5017937;28;20044;-88
2023/01/10 15:35:26;;;;;;;6.25;2.10;;;;;;;;;;5000148;28;20041;-88
2023/01/10 15:37:54;;;;;;;6.05;2.05;;;;;;;;;;5038230;28;20630;-89
2023/01/10 15:40:27;;;;;;;7.22;2.00;;;;;;;;;;5029400;28;20037;-89
2023/01/10 15:43:18;;;;;;;5.45;2.10;;;;;;;;;;5054779;28;20036;-89
2023/01/10 15:45:44;;;;;;;5.38;2.08;;;;;;;;;;5016501;28;20104;-88
2023/01/10 15:48:32;;;;;;;6.23;1.73;;;;;;;;;;5001790;28;20041;-89